Latest Weather Observations for Pallamana

IDS60901

Issued at 10:21 pm CST Saturday 30 May 2015 (issued every 10 minutes, with the page automatically refreshed every 10 minutes)

About weather observations | Map of Adelaide area stations | Latest observations for Adelaide area | Other Formats
Station Details ID: 024584 Name: PALLAMANA AERODROME Lat: -35.06 Lon: 139.23 Height: 45.0 m
Data from the previous 72 hours. | See also: Recent months at Pallamana
Date/Time
CST
Tmp

°C
App
Tmp
°C
Dew
Point
°C
Rel
Hum
%
Delta-T

°C
Wind Press
QNH
hPa
Press
MSL
hPa
Rain
since
9 am
mm
Dir
 
Spd
km/h
Gust
km/h
Spd
kts
Gust
kts
30/10:00pm 11.2 9.4 9.6 90 0.8 NW 9 9 5 5 1020.2 1020.2 0.2
30/09:30pm 11.6 9.9 9.8 89 0.9 WNW 9 13 5 7 1020.3 1020.3 0.2
30/09:00pm 11.3 9.5 9.5 89 0.9 WNW 9 13 5 7 1020.7 1020.7 0.0
30/08:30pm 10.8 8.8 8.8 87 1.0 NW 9 11 5 6 1020.7 1020.7 0.0
30/08:00pm 10.7 7.1 8.5 86 1.1 NW 17 20 9 11 1020.8 1020.8 0.0
30/07:30pm 10.2 7.3 8.1 87 1.0 NW 13 17 7 9 1020.8 1020.8 0.0
30/07:00pm 9.9 7.0 8.2 89 0.8 NW 13 17 7 9 1020.6 1020.6 0.0
30/06:30pm 10.8 9.0 9.4 91 0.7 NNW 9 9 5 5 1020.4 1020.4 0.0
30/06:00pm 11.9 10.4 10.5 91 0.7 N 9 11 5 6 1020.4 1020.4 0.0
30/05:30pm 12.4 10.9 10.5 88 1.0 N 9 11 5 6 1020.5 1020.5 0.0
30/05:00pm 12.9 11.8 10.6 86 1.2 NW 7 9 4 5 1020.4 1020.4 0.0
30/04:30pm 13.1 10.8 10.4 84 1.4 WNW 13 19 7 10 1020.6 1020.6 0.0
30/04:00pm 13.7 10.9 10.0 78 1.9 W 15 20 8 11 1020.5 1020.5 0.0
30/03:30pm 15.2 11.7 8.7 65 3.3 NW 17 24 9 13 1020.2 1020.2 0.0
30/03:00pm 15.5 11.7 9.1 65 3.3 NW 19 28 10 15 1020.4 1020.4 0.0
30/02:30pm 16.1 12.0 8.6 61 3.8 NW 20 32 11 17 1020.4 1020.4 0.0
30/02:00pm 16.0 11.9 8.8 62 3.7 NW 20 28 11 15 1020.3 1020.3 0.0
30/01:30pm 15.5 11.5 8.1 61 3.7 WNW 19 24 10 13 1020.7 1020.7 0.0
30/01:00pm 15.4 11.3 7.8 60 3.8 WNW 19 26 10 14 1020.9 1020.9 0.0
30/12:30pm 15.7 11.8 6.9 56 4.3 WNW 17 28 9 15 1021.2 1021.2 0.0
30/12:00pm 15.8 11.6 7.6 58 4.1 WNW 19 28 10 15 1021.7 1021.7 0.0
30/11:30am 15.3 11.2 7.9 61 3.7 NW 19 24 10 13 1022.3 1022.3 0.0
30/11:00am 15.7 11.7 8.4 62 3.7 NW 19 26 10 14 1022.9 1022.9 0.0
30/10:30am 14.9 10.9 8.1 64 3.4 NW 19 24 10 13 1023.2 1023.2 0.0
30/10:00am 14.4 10.7 9.3 71 2.6 N 19 26 10 14 1023.4 1023.4 0.0
30/09:30am 13.1 9.2 9.6 79 1.8 N 20 24 11 13 1023.5 1023.5 0.0
30/09:00am 11.7 10.0 9.7 87 1.0 NNE 9 13 5 7 1023.8 1023.8 0.0
30/08:30am 9.8 7.4 8.8 93 0.5 NNE 11 13 6 7 1023.8 1023.8 0.0
30/08:00am 7.2 5.2 6.3 94 0.4 SE 6 9 3 5 1023.5 1023.5 0.0
30/07:30am 5.4 2.3 5.4 100 0.0 NNW 11 13 6 7 1023.3 1023.3 0.0
30/07:00am 6.6 3.2 5.9 95 0.3 NNW 13 15 7 8 1023.5 1023.5 0.0
30/06:30am 4.3 1.6 3.8 97 0.2 NW 7 11 4 6 1023.4 1023.4 0.0
30/06:00am 6.4 3.7 5.7 95 0.3 NNW 9 11 5 6 1023.2 1023.2 0.0
30/05:30am 5.8 3.0 5.1 95 0.3 NNW 9 11 5 6 1023.3 1023.3 0.0
30/05:00am 6.4 3.7 5.5 94 0.4 NNW 9 11 5 6 1023.2 1023.2 0.0
30/04:30am 6.8 4.1 5.7 93 0.5 NW 9 9 5 5 1023.1 1023.1 0.0
30/04:00am 5.7 3.4 4.8 94 0.4 NW 6 7 3 4 1023.1 1023.1 0.0
30/03:30am 5.8 2.6 5.1 95 0.3 NNW 11 13 6 7 1023.4 1023.4 0.0
30/03:00am 7.1 4.4 5.8 91 0.6 NW 9 9 5 5 1023.1 1023.1 0.0
30/02:30am 7.3 4.6 5.5 88 0.8 NW 9 13 5 7 1023.3 1023.3 0.0
30/02:00am 8.9 5.4 7.0 88 0.9 WNW 15 17 8 9 1023.4 1023.4 0.0
30/01:30am 8.7 5.2 7.0 89 0.8 NW 15 17 8 9 1023.4 1023.4 0.0
30/01:00am 7.7 4.6 5.7 87 0.9 NW 11 15 6 8 1023.6 1023.6 0.0
30/12:30am 10.1 7.0 7.4 83 1.3 WNW 13 15 7 8 1023.7 1023.7 0.0
30/12:00am 10.3 7.6 7.4 82 1.4 WNW 11 13 6 7 1024.0 1024.0 0.0
 
Date/Time
CST
Tmp

°C
App
Tmp
°C
Dew
Point
°C
Rel
Hum
%
Delta-T

°C
Wind Press
QNH
hPa
Press
MSL
hPa
Rain
since
9 am
mm
Dir
 
Spd
km/h
Gust
km/h
Spd
kts
Gust
kts
29/11:30pm 11.2 9.1 8.1 81 1.5 W 9 11 5 6 1024.0 1024.0 0.0
29/11:00pm 11.6 9.5 8.3 80 1.6 WNW 9 13 5 7 1024.4 1024.4 0.0
29/10:30pm 12.4 9.9 8.3 76 2.0 WNW 11 15 6 8 1024.5 1024.5 0.0
29/10:00pm 12.2 9.3 8.3 77 1.9 W 13 15 7 8 1024.6 1024.6 0.0
29/09:30pm 12.1 9.7 8.5 78 1.8 WNW 11 15 6 8 1024.6 1024.6 0.0
29/09:00pm 12.0 9.5 8.1 77 1.9 W 11 15 6 8 1024.6 1024.6 0.0
29/08:30pm 11.6 8.2 7.7 77 1.9 W 15 17 8 9 1024.6 1024.6 0.0
29/08:00pm 11.2 7.7 7.0 75 2.0 W 15 17 8 9 1024.2 1024.2 0.0
29/07:30pm 10.9 7.7 6.9 76 1.9 W 13 15 7 8 1024.1 1024.1 0.0
29/07:00pm 11.1 8.3 6.9 75 2.0 W 11 13 6 7 1024.0 1024.0 0.0
29/06:30pm 11.3 8.5 7.1 75 2.0 W 11 15 6 8 1024.0 1024.0 0.0
29/06:00pm 11.7 8.9 6.9 72 2.3 W 11 13 6 7 1023.8 1023.8 0.0
29/05:30pm 13.3 10.7 7.8 69 2.7 W 11 13 6 7 1023.6 1023.6 0.0
29/05:00pm 13.4 9.9 7.0 65 3.1 W 15 17 8 9 1023.4 1023.4 0.0
29/04:30pm 14.2 10.4 6.0 58 3.9 W 15 20 8 11 1023.3 1023.3 0.0
29/04:00pm 14.7 11.3 5.9 55 4.2 W 13 19 7 10 1023.3 1023.3 0.0
29/03:30pm 16.0 12.0 6.8 54 4.5 W 17 22 9 12 1023.1 1023.1 0.0
29/03:00pm 16.6 12.9 6.1 50 5.1 W 15 22 8 12 1023.2 1023.2 0.0
29/02:30pm 15.6 13.1 6.6 55 4.4 W 9 15 5 8 1023.3 1023.3 0.0
29/02:00pm 15.9 13.2 5.7 50 4.9 WNW 9 15 5 8 1023.3 1023.3 0.0
29/01:30pm 15.3 12.9 6.9 57 4.1 NW 9 11 5 6 1023.3 1023.3 0.0
29/01:00pm 15.6 12.7 6.3 54 4.5 WNW 11 19 6 10 1023.6 1023.6 0.0
29/12:30pm 15.2 11.9 6.5 56 4.2 WNW 13 20 7 11 1023.9 1023.9 0.0
29/12:00pm 14.9 11.1 7.4 61 3.7 W 17 20 9 11 1023.9 1023.9 0.0
29/11:30am 15.2 11.9 8.0 62 3.6 W 15 20 8 11 1024.0 1024.0 0.0
29/11:00am 14.7 11.8 8.3 65 3.2 W 13 17 7 9 1024.3 1024.3 0.0
29/10:30am 14.5 10.7 7.6 63 3.4 WSW 17 20 9 11 1024.7 1024.7 0.0
29/10:00am 14.2 11.4 8.4 68 2.9 WSW 13 17 7 9 1024.8 1024.8 0.0
29/09:30am 13.6 11.5 8.4 71 2.6 W 9 15 5 8 1024.5 1024.5 0.0
29/09:00am 12.3 11.1 9.7 84 1.3 WNW 6 9 3 5 1024.3 1024.3 0.8
29/08:30am 10.7 9.7 8.9 89 0.9 NE 4 7 2 4 1024.3 1024.3 0.8
29/08:00am 9.1 6.9 7.8 92 0.6 WNW 9 13 5 7 1024.1 1024.1 0.8
29/07:30am 8.3 5.1 7.0 91 0.6 NW 13 15 7 8 1024.0 1024.0 0.8
29/07:00am 7.9 4.7 6.8 93 0.5 NW 13 15 7 8 1023.8 1023.8 0.8
29/06:30am 8.6 6.3 7.3 91 0.6 NW 9 11 5 6 1023.5 1023.5 0.8
29/06:00am 8.8 7.1 7.5 91 0.6 W 6 7 3 4 1023.0 1023.0 0.8
29/05:30am 10.7 9.1 8.9 89 0.9 W 7 9 4 5 1022.7 1022.7 0.8
29/05:00am 11.0 9.2 9.4 90 0.8 WNW 9 9 5 5 1022.7 1022.7 0.8
29/04:30am 10.9 9.5 9.5 91 0.7 NW 7 9 4 5 1022.6 1022.6 0.8
29/04:00am 10.9 9.6 9.9 93 0.5 NW 7 9 4 5 1022.5 1022.5 0.8
29/03:30am 11.0 9.7 10.0 93 0.5 NW 7 7 4 4 1022.2 1022.2 0.8
29/03:00am 11.0 11.0 9.8 92 0.6 CALM 0 6 0 3 1021.9 1021.9 0.8
29/02:30am 11.4 10.4 10.2 92 0.6 NNW 6 7 3 4 1022.2 1022.2 0.8
29/02:00am 11.9 10.6 10.1 89 0.9 NW 7 9 4 5 1021.9 1021.9 0.8
29/01:30am 12.4 11.1 10.1 86 1.2 W 7 9 4 5 1022.1 1022.1 0.8
29/01:00am 12.6 10.5 9.6 82 1.5 W 11 15 6 8 1021.8 1021.8 0.8
29/12:30am 12.6 11.0 10.3 86 1.2 W 9 19 5 10 1021.8 1021.8 0.8
29/12:00am 12.6 10.8 10.7 88 1.0 W 11 15 6 8 1021.6 1021.6 0.8
 
Date/Time
CST
Tmp

°C
App
Tmp
°C
Dew
Point
°C
Rel
Hum
%
Delta-T

°C
Wind Press
QNH
hPa
Press
MSL
hPa
Rain
since
9 am
mm
Dir
 
Spd
km/h
Gust
km/h
Spd
kts
Gust
kts
28/11:30pm 11.2 10.0 10.2 94 0.5 WSW 7 9 4 5 1021.7 1021.7 0.8
28/11:00pm 12.2 11.2 11.1 93 0.6 WNW 7 9 4 5 1021.7 1021.7 0.8
28/10:30pm 12.6 11.7 11.5 93 0.6 WNW 7 11 4 6 1021.7 1021.7 0.8
28/10:00pm 12.8 11.2 11.7 93 0.6 WNW 11 13 6 7 1021.7 1021.7 0.6
28/09:30pm 12.9 11.8 11.8 93 0.6 WSW 9 13 5 7 1021.1 1021.1 0.6
28/09:00pm 12.9 12.1 11.6 92 0.7 W 7 11 4 6 1020.8 1020.8 0.6
28/08:30pm 12.8 11.1 11.1 89 0.9 WSW 11 15 6 8 1020.8 1020.8 0.6
28/08:00pm 13.4 10.9 11.1 86 1.2 WSW 15 22 8 12 1020.6 1020.6 0.6
28/07:30pm 13.3 11.2 11.2 87 1.1 W 13 15 7 8 1020.1 1020.1 0.6
28/07:00pm 13.2 12.0 11.7 91 0.8 W 9 11 5 6 1020.0 1020.0 0.6
28/06:30pm 13.4 10.3 11.5 88 1.0 W 19 26 10 14 1019.9 1019.9 0.6
28/06:00pm 13.7 11.0 11.8 88 1.0 W 17 26 9 14 1019.4 1019.4 0.4
28/05:30pm 13.7 10.1 11.8 88 1.0 WSW 22 30 12 16 1018.8 1018.8 0.2
28/05:00pm 15.0 10.8 11.1 77 2.1 WSW 24 30 13 16 1018.5 1018.5 0.0
28/04:30pm 17.1 13.6 8.7 57 4.3 W 17 22 9 12 1018.0 1018.0 0.0
28/04:00pm 17.6 13.3 8.0 53 4.9 W 20 32 11 17 1017.7 1017.7 0.0
28/03:30pm 17.9 13.5 7.6 51 5.2 WNW 20 30 11 16 1017.8 1017.8 0.0
28/03:00pm 17.7 13.6 8.6 55 4.7 WNW 20 28 11 15 1017.6 1017.6 0.0
28/02:30pm 18.3 13.3 7.9 50 5.3 WNW 24 33 13 18 1017.4 1017.4 0.0
28/02:00pm 18.5 14.5 9.1 54 4.9 WNW 20 28 11 15 1017.6 1017.6 0.0
28/01:30pm 18.2 13.4 8.7 54 4.9 WNW 24 35 13 19 1017.8 1017.8 0.0
28/01:00pm 17.9 12.6 8.4 53 4.9 WNW 26 35 14 19 1018.1 1018.1 0.0
28/12:30pm 18.1 13.1 8.1 52 5.1 WNW 24 37 13 20 1018.1 1018.1 0.0
28/12:00pm 18.8 13.6 7.3 47 5.8 W 24 35 13 19 1018.2 1018.2 0.0
28/11:30am 18.4 14.5 8.8 53 5.0 NW 19 30 10 16 1018.6 1018.6 0.0
28/11:00am 17.0 12.3 9.3 60 4.0 N 24 33 13 18 1018.9 1018.9 0.0
28/10:30am 17.2 12.3 9.8 61 3.9 N 26 35 14 19 1019.2 1019.2 0.0
28/10:00am 16.3 11.8 10.0 66 3.3 NNW 24 30 13 16 1019.2 1019.2 0.0
28/09:30am 16.0 11.9 10.1 68 3.1 NNW 22 30 12 16 1019.3 1019.3 0.0
28/09:00am 15.5 11.1 10.4 71 2.7 NNW 24 32 13 17 1019.3 1019.3 0.0
28/08:30am 13.7 10.4 9.4 75 2.2 NNW 17 22 9 12 1019.3 1019.3 0.0
28/08:00am 12.7 9.1 8.3 74 2.2 NW 17 20 9 11 1019.1 1019.1 0.0
28/07:30am 12.3 8.6 8.0 75 2.1 NW 17 20 9 11 1018.7 1018.7 0.0
28/07:00am 12.2 8.4 7.5 73 2.3 NW 17 22 9 12 1018.7 1018.7 0.0
28/06:30am 11.8 8.3 7.2 73 2.2 NW 15 20 8 11 1018.2 1018.2 0.0
28/06:00am 12.1 8.6 7.3 72 2.3 NW 15 20 8 11 1017.8 1017.8 0.0
28/05:30am 10.8 8.5 7.5 80 1.6 WNW 9 15 5 8 1017.6 1017.6 0.0
28/05:00am 8.7 6.8 6.8 88 0.9 ESE 6 6 3 3 1017.4 1017.4 0.0
28/04:30am 9.2 6.8 6.8 85 1.1 NE 9 9 5 5 1017.6 1017.6 0.0
28/04:00am 10.1 7.9 6.2 77 1.8 N 7 11 4 6 1017.6 1017.6 0.0
28/03:30am 9.5 7.1 6.9 84 1.2 NNW 9 11 5 6 1017.7 1017.7 0.0
28/03:00am 8.9 6.9 7.0 88 0.9 N 7 9 4 5 1017.6 1017.6 0.0
28/02:30am 7.9 5.9 6.4 90 0.7 ENE 6 7 3 4 1017.9 1017.9 0.0
28/02:00am 9.0 7.3 7.5 90 0.7 N 6 6 3 3 1018.2 1018.2 0.0
28/01:30am 9.3 8.3 7.4 88 0.9 NW 2 6 1 3 1018.2 1018.2 0.0
28/01:00am 8.8 8.0 6.4 85 1.1 CALM 0 0 0 0 1018.0 1018.0 0.0
28/12:30am 10.4 9.8 7.5 82 1.4 CALM 0 0 0 0 1018.2 1018.2 0.0
28/12:00am 10.6 8.9 7.7 82 1.4 N 6 9 3 5 1018.5 1018.5 0.0
 
Date/Time
CST
Tmp

°C
App
Tmp
°C
Dew
Point
°C
Rel
Hum
%
Delta-T

°C
Wind Press
QNH
hPa
Press
MSL
hPa
Rain
since
9 am
mm
Dir
 
Spd
km/h
Gust
km/h
Spd
kts
Gust
kts
27/11:30pm 11.3 9.5 7.8 79 1.7 NNW 7 9 4 5 1018.7 1018.7 0.0
27/11:00pm 11.6 9.4 7.9 78 1.8 N 9 13 5 7 1018.7 1018.7 0.0
27/10:30pm 12.1 10.5 8.2 77 1.9 N 6 7 3 4 1019.1 1019.1 0.0

Latest Capital City Observations: Canberra | Sydney | Melbourne | Brisbane | Adelaide | Perth | Hobart | Darwin

Other Formats:

Comma delimited format used in spreadsheet applications
http://www.bom.gov.au/fwo/IDS60901/IDS60901.95818.axf

JavaScript Object Notation format (JSON) in row-major order
http://www.bom.gov.au/fwo/IDS60901/IDS60901.95818.json